Time;durP1;ratioP1;P1;durP2;ratioP2;P2;SDS_P1;SDS_P2;PMS_P1;PMS_P2;Temp;Humidity;BMP_temperature;BMP_pressure;BME280_temperature;BME280_humidity;BME280_pressure;Samples;Min_cycle;Max_cycle;Signal;HPM_P1;HPM_P2
2023/11/20 04:07:08;;;;;;;0.30;0.30;;;11.20;99.90;;;;;;5008180;23;20539;-61
2023/11/20 04:09:34;;;;;;;0.30;0.30;;;11.20;99.90;;;;;;4976766;28;20452;-60
2023/11/20 04:11:59;;;;;;;0.30;0.30;;;11.20;99.90;;;;;;4976821;28;20174;-62
2023/11/20 04:14:25;;;;;;;0.30;0.30;;;11.20;99.90;;;;;;4957803;28;20201;-62
2023/11/20 04:16:50;;;;;;;0.30;0.30;;;11.20;99.90;;;;;;4958551;28;20202;-62
2023/11/20 04:19:16;;;;;;;0.30;0.30;;;11.20;99.90;;;;;;4956797;29;20196;-62
2023/11/20 04:21:42;;;;;;;0.30;0.30;;;11.20;99.90;;;;;;4957375;29;20179;-61
2023/11/20 04:24:08;;;;;;;0.30;0.27;;;11.20;99.90;;;;;;4956883;29;20264;-62
2023/11/20 04:26:34;;;;;;;0.53;0.53;;;11.20;99.90;;;;;;4957166;28;20209;-61
2023/11/20 04:28:59;;;;;;;0.30;0.27;;;11.20;99.90;;;;;;4939973;29;20426;-62
2023/11/20 04:31:25;;;;;;;0.30;0.20;;;11.20;99.90;;;;;;4957138;29;20191;-61
2023/11/20 04:33:51;;;;;;;0.30;0.30;;;11.20;99.90;;;;;;4955761;28;20285;-63
2023/11/20 04:36:17;;;;;;;0.40;0.40;;;11.20;99.90;;;;;;4955377;28;20202;-62
2023/11/20 04:38:42;;;;;;;0.30;0.30;;;11.20;99.90;;;;;;4957152;29;20414;-62
2023/11/20 04:41:08;;;;;;;0.30;0.20;;;11.30;99.90;;;;;;4956949;29;20183;-61
2023/11/20 04:43:34;;;;;;;0.40;0.40;;;11.30;99.90;;;;;;4957002;29;20255;-62
2023/11/20 04:46:00;;;;;;;0.30;0.30;;;11.30;99.90;;;;;;4956079;28;20313;-61
2023/11/20 04:48:26;;;;;;;0.37;0.37;;;11.30;99.90;;;;;;4939637;29;20415;-61
2023/11/20 04:50:52;;;;;;;0.30;0.30;;;11.40;99.90;;;;;;4956453;29;20181;-62
2023/11/20 04:53:18;;;;;;;0.30;0.30;;;11.30;99.90;;;;;;4956691;29;20181;-62
2023/11/20 04:55:44;;;;;;;0.38;0.38;;;11.30;99.90;;;;;;4939034;29;20801;-62
2023/11/20 04:58:10;;;;;;;0.30;0.30;;;11.40;99.90;;;;;;4939489;29;20178;-62
2023/11/20 05:00:35;;;;;;;0.30;0.30;;;11.40;99.90;;;;;;4956582;29;20836;-61
2023/11/20 05:03:01;;;;;;;0.30;0.27;;;11.40;99.90;;;;;;4956451;29;20172;-61
2023/11/20 05:05:26;;;;;;;0.30;0.27;;;11.40;99.90;;;;;;4955793;28;20201;-62
2023/11/20 05:07:53;;;;;;;0.30;0.30;;;11.40;99.90;;;;;;4955985;29;20190;-63
2023/11/20 05:10:20;;;;;;;0.30;0.30;;;11.40;99.90;;;;;;4956392;29;20172;-61
2023/11/20 05:12:45;;;;;;;0.30;0.30;;;11.50;99.90;;;;;;4956089;29;20466;-62
2023/11/20 05:15:11;;;;;;;0.30;0.30;;;11.50;99.90;;;;;;4955386;28;20865;-62
2023/11/20 05:17:36;;;;;;;0.30;0.20;;;11.50;99.90;;;;;;4956053;29;20172;-61
2023/11/20 05:20:03;;;;;;;0.30;0.20;;;11.50;99.90;;;;;;4956370;29;20296;-62
2023/11/20 05:22:28;;;;;;;0.30;0.30;;;11.50;99.90;;;;;;4938910;29;20175;-61
2023/11/20 05:24:54;;;;;;;0.30;0.30;;;11.50;99.90;;;;;;4955840;28;20416;-62
2023/11/20 05:27:20;;;;;;;0.30;0.20;;;11.40;99.90;;;;;;4956126;29;20710;-61
2023/11/20 05:29:48;;;;;;;0.30;0.30;;;11.40;99.90;;;;;;4955458;29;20184;-61
2023/11/20 05:32:14;;;;;;;0.30;0.30;;;11.40;99.90;;;;;;4956142;29;20900;-62
2023/11/20 05:34:39;;;;;;;0.30;0.30;;;11.40;99.90;;;;;;4955318;28;20623;-61
2023/11/20 05:37:05;;;;;;;0.30;0.20;;;11.40;99.90;;;;;;4955639;29;20279;-61
2023/11/20 05:39:31;;;;;;;0.30;0.20;;;11.40;99.90;;;;;;4955956;29;20172;-61
2023/11/20 05:41:56;;;;;;;0.30;0.30;;;11.40;99.90;;;;;;4955950;29;20183;-61
2023/11/20 05:44:22;;;;;;;0.30;0.30;;;11.40;99.90;;;;;;4955531;29;20179;-61
2023/11/20 05:46:48;;;;;;;0.30;0.20;;;11.40;99.90;;;;;;4955460;28;20687;-61
2023/11/20 05:49:13;;;;;;;0.30;0.30;;;11.40;99.90;;;;;;4955803;29;20222;-60
2023/11/20 05:51:39;;;;;;;0.30;0.30;;;11.40;99.90;;;;;;4955522;29;20638;-61
2023/11/20 05:54:08;;;;;;;0.30;0.20;;;11.40;99.90;;;;;;4954963;29;20236;-60
2023/11/20 05:56:37;;;;;;;0.30;0.30;;;11.40;99.90;;;;;;4955674;28;20517;-60
2023/11/20 05:59:03;;;;;;;0.30;0.30;;;11.40;99.90;;;;;;4955733;29;20375;-60
2023/11/20 06:01:39;;;;;;;0.30;0.30;;;11.40;99.90;;;;;;4955621;29;20711;-60
2023/11/20 06:04:06;;;;;;;0.30;0.30;;;11.50;99.90;;;;;;4955373;29;20404;-60
2023/11/20 06:06:31;;;;;;;0.30;0.20;;;11.50;99.90;;;;;;4955279;28;20831;-60
2023/11/20 06:08:58;;;;;;;0.30;0.30;;;11.50;99.90;;;;;;4955315;29;20509;-60
2023/11/20 06:11:24;;;;;;;0.30;0.30;;;11.50;99.90;;;;;;4955648;29;20174;-61
2023/11/20 06:13:50;;;;;;;0.30;0.30;;;11.50;99.90;;;;;;4955379;29;20407;-63
2023/11/20 06:16:16;;;;;;;0.30;0.30;;;11.50;99.90;;;;;;4966614;28;20445;-63
2023/11/20 06:18:45;;;;;;;0.30;0.30;;;11.50;99.90;;;;;;4955307;29;20174;-61
2023/11/20 06:21:10;;;;;;;0.30;0.30;;;11.50;99.90;;;;;;4963244;28;20378;-63
2023/11/20 06:23:36;;;;;;;0.30;0.30;;;11.50;99.90;;;;;;4953922;29;20946;-60
2023/11/20 06:26:02;;;;;;;0.30;0.30;;;11.50;99.90;;;;;;4954803;28;20190;-62
2023/11/20 06:28:28;;;;;;;0.30;0.20;;;11.50;99.90;;;;;;4955146;29;20258;-60
2023/11/20 06:30:53;;;;;;;0.70;0.70;;;11.50;99.90;;;;;;4955232;29;20382;-60
2023/11/20 06:33:20;;;;;;;0.30;0.27;;;11.60;99.90;;;;;;4954914;29;20403;-60
2023/11/20 06:35:46;;;;;;;0.30;0.30;;;11.60;99.90;;;;;;4954637;28;20218;-61
2023/11/20 06:38:12;;;;;;;0.80;0.73;;;11.60;99.90;;;;;;4954351;29;20407;-60
2023/11/20 06:40:39;;;;;;;0.30;0.30;;;11.60;99.90;;;;;;4955174;29;20230;-61
2023/11/20 06:43:05;;;;;;;0.30;0.20;;;11.60;99.90;;;;;;4955043;29;20481;-60
2023/11/20 06:45:31;;;;;;;0.30;0.30;;;11.60;99.90;;;;;;4954449;28;20439;-60
2023/11/20 06:47:57;;;;;;;0.30;0.30;;;11.50;99.90;;;;;;4955572;29;20183;-60
2023/11/20 06:50:24;;;;;;;0.37;0.37;;;11.60;99.90;;;;;;4955125;28;20183;-62
2023/11/20 06:52:51;;;;;;;0.30;0.30;;;11.60;99.90;;;;;;4971905;28;20435;-61
2023/11/20 06:55:17;;;;;;;0.30;0.30;;;11.60;99.90;;;;;;4971346;28;20489;-61
2023/11/20 06:57:44;;;;;;;0.30;0.30;;;11.60;99.90;;;;;;4957180;28;20426;-61
2023/11/20 07:00:12;;;;;;;0.30;0.30;;;11.70;99.90;;;;;;4958460;28;20301;-61
2023/11/20 07:02:42;;;;;;;0.30;0.30;;;11.70;99.90;;;;;;4941396;29;20755;-60
2023/11/20 07:05:11;;;;;;;0.30;0.20;;;11.70;99.90;;;;;;4958038;28;20476;-60
2023/11/20 07:07:42;;;;;;;0.30;0.30;;;11.80;99.90;;;;;;4958587;29;21066;-60
2023/11/20 07:10:11;;;;;;;0.30;0.27;;;11.80;99.90;;;;;;4958738;29;20408;-60
2023/11/20 07:12:38;;;;;;;0.30;0.27;;;11.80;99.90;;;;;;4963200;28;20429;-60
2023/11/20 07:15:07;;;;;;;0.30;0.20;;;11.80;99.90;;;;;;4957563;28;20446;-60
2023/11/20 07:17:33;;;;;;;0.30;0.30;;;11.80;99.90;;;;;;4938653;28;20431;-61
2023/11/20 07:19:59;;;;;;;0.30;0.30;;;11.80;99.90;;;;;;4977812;28;20380;-61
2023/11/20 07:22:27;;;;;;;0.30;0.30;;;11.80;99.90;;;;;;4960017;28;20801;-61
2023/11/20 07:24:52;;;;;;;0.30;0.30;;;11.80;99.90;;;;;;4957855;28;20172;-60
2023/11/20 07:27:18;;;;;;;0.30;0.30;;;11.90;99.90;;;;;;4958722;28;20445;-60
2023/11/20 07:29:44;;;;;;;0.50;0.50;;;11.90;99.90;;;;;;4971057;28;20967;-60
2023/11/20 07:32:10;;;;;;;0.30;0.30;;;11.90;99.90;;;;;;4963622;28;20272;-60
2023/11/20 07:34:36;;;;;;;0.30;0.30;;;11.90;99.90;;;;;;4959126;28;20203;-62
2023/11/20 07:37:01;;;;;;;0.30;0.27;;;12.00;99.90;;;;;;4961834;28;20184;-61
2023/11/20 07:39:27;;;;;;;0.40;0.40;;;12.00;99.90;;;;;;4957605;28;20425;-61
2023/11/20 07:41:53;;;;;;;0.30;0.20;;;12.10;99.90;;;;;;4976440;28;20190;-60
2023/11/20 07:44:19;;;;;;;0.30;0.30;;;12.10;99.90;;;;;;4961622;28;20239;-61
2023/11/20 07:46:45;;;;;;;0.30;0.30;;;12.10;99.90;;;;;;4957775;28;20298;-59
2023/11/20 07:49:11;;;;;;;0.97;0.97;;;12.20;99.90;;;;;;4957806;29;20507;-59
2023/11/20 07:51:36;;;;;;;0.30;0.30;;;12.30;99.90;;;;;;4957607;29;20235;-59
2023/11/20 07:54:02;;;;;;;0.30;0.20;;;12.30;99.90;;;;;;4957454;29;20262;-59
2023/11/20 07:56:27;;;;;;;0.30;0.30;;;12.40;99.90;;;;;;4957616;28;20230;-61
2023/11/20 07:58:53;;;;;;;0.30;0.30;;;12.40;99.90;;;;;;4957738;28;20259;-61
2023/11/20 08:01:20;;;;;;;0.30;0.30;;;12.50;99.90;;;;;;4963099;28;20190;-61
2023/11/20 08:03:45;;;;;;;0.30;0.30;;;12.50;99.90;;;;;;4976852;28;20230;-61
2023/11/20 08:06:13;;;;;;;0.30;0.27;;;12.50;99.90;;;;;;4966784;28;20462;-62
2023/11/20 08:08:38;;;;;;;0.30;0.30;;;12.60;99.90;;;;;;4961758;28;20180;-62
2023/11/20 08:11:04;;;;;;;0.30;0.30;;;12.60;99.90;;;;;;4956979;29;20474;-61
2023/11/20 08:13:30;;;;;;;0.30;0.20;;;12.70;99.90;;;;;;4958809;28;20201;-62
2023/11/20 08:15:56;;;;;;;0.30;0.30;;;12.70;99.90;;;;;;4959935;28;20477;-61
2023/11/20 08:18:21;;;;;;;0.30;0.27;;;12.70;99.90;;;;;;4963079;28;20183;-61
2023/11/20 08:20:48;;;;;;;0.30;0.30;;;12.80;99.90;;;;;;4957262;29;20259;-61
2023/11/20 08:23:13;;;;;;;0.30;0.30;;;12.80;99.90;;;;;;4957318;29;20208;-61
2023/11/20 08:25:39;;;;;;;0.30;0.30;;;12.90;99.90;;;;;;4941362;28;20457;-61
2023/11/20 08:28:06;;;;;;;0.30;0.30;;;13.00;99.90;;;;;;4976276;28;20184;-62
2023/11/20 08:30:34;;;;;;;0.30;0.20;;;13.00;99.90;;;;;;4959968;28;20252;-61
2023/11/20 08:33:00;;;;;;;0.30;0.30;;;13.10;99.90;;;;;;4949075;29;20438;-61
2023/11/20 08:35:25;;;;;;;0.30;0.20;;;13.20;99.90;;;;;;4956642;28;20498;-61
2023/11/20 08:37:51;;;;;;;0.30;0.20;;;13.30;99.90;;;;;;4942798;29;20656;-62
2023/11/20 08:40:16;;;;;;;0.30;0.30;;;13.30;99.90;;;;;;4956949;29;20187;-61
2023/11/20 08:42:42;;;;;;;0.30;0.30;;;13.40;99.90;;;;;;4957057;29;20172;-61
2023/11/20 08:45:08;;;;;;;0.30;0.20;;;13.50;99.90;;;;;;4956112;28;20236;-59
2023/11/20 08:47:35;;;;;;;0.30;0.30;;;13.60;99.90;;;;;;4956840;29;20227;-59
2023/11/20 08:50:02;;;;;;;0.30;0.30;;;13.60;99.90;;;;;;4955936;29;20418;-60
2023/11/20 08:52:28;;;;;;;0.30;0.30;;;13.70;99.90;;;;;;4956552;28;20762;-62
2023/11/20 08:54:55;;;;;;;0.30;0.30;;;13.70;99.90;;;;;;4958710;28;20431;-62
2023/11/20 08:57:22;;;;;;;0.30;0.30;;;13.60;99.90;;;;;;4961056;28;20177;-60
2023/11/20 08:59:48;;;;;;;0.30;0.30;;;13.70;99.90;;;;;;4940667;28;20431;-61
2023/11/20 09:02:13;;;;;;;0.30;0.20;;;13.70;99.90;;;;;;4973455;28;20390;-60
2023/11/20 09:04:39;;;;;;;0.40;0.40;;;13.70;99.90;;;;;;4975298;28;20856;-61
2023/11/20 09:07:05;;;;;;;0.30;0.30;;;13.70;99.90;;;;;;4958210;28;20235;-60
2023/11/20 09:09:31;;;;;;;0.40;0.40;;;13.70;99.90;;;;;;4958141;28;20506;-61
2023/11/20 09:11:56;;;;;;;0.30;0.30;;;13.80;99.90;;;;;;4956167;28;20400;-61
2023/11/20 09:14:22;;;;;;;0.30;0.30;;;14.10;99.90;;;;;;4938538;29;20201;-62
2023/11/20 09:16:48;;;;;;;0.30;0.20;;;14.50;99.90;;;;;;4969397;28;20665;-62
2023/11/20 09:19:13;;;;;;;0.30;0.30;;;15.00;99.90;;;;;;4953229;29;20212;-61
2023/11/20 09:21:39;;;;;;;0.50;0.50;;;15.50;99.90;;;;;;4922543;29;20274;-62
2023/11/20 09:24:05;;;;;;;0.30;0.30;;;16.00;99.90;;;;;;4955698;29;20689;-61
2023/11/20 09:26:30;;;;;;;0.40;0.40;;;16.60;99.90;;;;;;4955909;28;20212;-61
2023/11/20 09:28:56;;;;;;;0.30;0.30;;;16.90;99.90;;;;;;4963762;28;20204;-61
2023/11/20 09:31:22;;;;;;;0.57;0.57;;;17.20;99.90;;;;;;4956453;28;20522;-61
2023/11/20 09:33:49;;;;;;;0.30;0.30;;;17.70;99.90;;;;;;4955139;28;20283;-67
2023/11/20 09:36:14;;;;;;;0.30;0.30;;;18.50;99.30;;;;;;4955690;28;20432;-61
2023/11/20 09:38:40;;;;;;;0.30;0.30;;;19.30;98.40;;;;;;4955726;29;20387;-62
2023/11/20 09:41:07;;;;;;;0.30;0.20;;;19.90;96.90;;;;;;4944179;28;20191;-61
2023/11/20 09:43:34;;;;;;;0.30;0.30;;;20.10;95.90;;;;;;4963462;28;20888;-61
2023/11/20 09:46:06;;;;;;;0.30;0.20;;;20.40;95.00;;;;;;4955086;28;20437;-61
2023/11/20 09:48:36;;;;;;;0.40;0.40;;;20.50;94.80;;;;;;4955195;29;20384;-62
2023/11/20 09:51:05;;;;;;;0.30;0.20;;;20.70;94.30;;;;;;4955450;28;20424;-61
2023/11/20 09:53:38;;;;;;;0.30;0.30;;;20.50;94.00;;;;;;4947654;29;20815;-62
2023/11/20 09:56:04;;;;;;;0.40;0.40;;;20.30;93.10;;;;;;4938811;28;20546;-62
2023/11/20 09:58:34;;;;;;;0.30;0.20;;;19.70;93.70;;;;;;4955377;29;20435;-62
2023/11/20 10:01:06;;;;;;;0.30;0.30;;;19.10;94.40;;;;;;4961511;28;20398;-60
2023/11/20 10:03:35;;;;;;;0.30;0.20;;;18.50;95.30;;;;;;4939927;29;20447;-61
2023/11/20 10:06:05;;;;;;;0.30;0.20;;;18.10;95.70;;;;;;4954719;28;20425;-61
2023/11/20 10:08:35;;;;;;;0.30;0.30;;;17.70;95.70;;;;;;4955436;29;20425;-61
2023/11/20 10:11:02;;;;;;;0.30;0.20;;;17.60;96.40;;;;;;4955211;28;20415;-61
2023/11/20 10:13:30;;;;;;;0.30;0.23;;;17.50;96.90;;;;;;4955494;29;20394;-61
2023/11/20 10:15:57;;;;;;;0.30;0.20;;;17.30;97.00;;;;;;4954761;28;20527;-61
2023/11/20 10:18:22;;;;;;;0.30;0.27;;;16.80;98.00;;;;;;4954944;29;20453;-61
2023/11/20 10:20:49;;;;;;;0.30;0.30;;;16.40;99.20;;;;;;4937963;29;20519;-61
2023/11/20 10:23:16;;;;;;;0.30;0.20;;;16.00;99.90;;;;;;4955043;28;20181;-61
2023/11/20 10:25:44;;;;;;;0.30;0.30;;;15.80;99.90;;;;;;4955384;28;20451;-61
2023/11/20 10:28:10;;;;;;;0.30;0.30;;;15.80;99.90;;;;;;4955327;29;20405;-62
2023/11/20 10:30:36;;;;;;;0.30;0.30;;;16.00;99.90;;;;;;4959041;28;20394;-63
2023/11/20 10:33:02;;;;;;;0.30;0.30;;;16.30;99.90;;;;;;4958779;28;20534;-67
2023/11/20 10:35:28;;;;;;;0.30;0.20;;;16.60;99.90;;;;;;4950551;28;20559;-62
2023/11/20 10:37:58;;;;;;;0.30;0.30;;;16.60;99.90;;;;;;4970045;28;20461;-63
2023/11/20 10:40:27;;;;;;;0.33;0.33;;;16.30;99.20;;;;;;4963624;28;20405;-62
2023/11/20 10:42:54;;;;;;;0.30;0.30;;;16.00;99.30;;;;;;4968969;28;20452;-62
2023/11/20 10:45:23;;;;;;;0.30;0.20;;;15.70;99.90;;;;;;4944612;29;20953;-61
2023/11/20 10:47:49;;;;;;;0.30;0.30;;;15.40;99.90;;;;;;4935627;29;20480;-63
2023/11/20 10:50:17;;;;;;;0.30;0.20;;;15.20;99.90;;;;;;4929243;29;20460;-64
2023/11/20 10:52:44;;;;;;;0.30;0.30;;;15.10;99.90;;;;;;4971407;28;20509;-59
2023/11/20 10:55:14;;;;;;;0.30;0.30;;;14.80;99.90;;;;;;4954192;28;20543;-61
2023/11/20 10:57:40;;;;;;;0.40;0.40;;;14.70;99.90;;;;;;4962212;28;20418;-62
2023/11/20 11:00:11;;;;;;;0.30;0.30;;;14.50;99.90;;;;;;4954736;29;20477;-61
2023/11/20 11:02:40;;;;;;;0.50;0.50;;;14.30;99.90;;;;;;4937500;29;20419;-61
2023/11/20 11:05:10;;;;;;;0.30;0.30;;;14.00;99.90;;;;;;4960444;28;20408;-63
2023/11/20 11:07:40;;;;;;;0.33;0.33;;;13.80;99.90;;;;;;4964925;28;20461;-62
2023/11/20 11:10:10;;;;;;;0.30;0.30;;;13.60;99.90;;;;;;4962966;28;20543;-61
2023/11/20 11:12:44;;;;;;;0.30;0.30;;;13.40;99.90;;;;;;4963757;28;20855;-62
2023/11/20 11:15:14;;;;;;;0.30;0.30;;;13.30;99.90;;;;;;4972831;28;21052;-61
2023/11/20 11:17:48;;;;;;;0.30;0.30;;;13.20;99.90;;;;;;4970075;28;20423;-61
2023/11/20 11:20:18;;;;;;;0.30;0.30;;;13.10;99.90;;;;;;4971816;28;20390;-61
2023/11/20 11:22:59;;;;;;;0.30;0.20;;;13.10;99.90;;;;;;4972990;28;20386;-64
2023/11/20 11:25:28;;;;;;;0.30;0.20;;;13.10;99.90;;;;;;4962016;28;20448;-60
2023/11/20 11:27:57;;;;;;;0.30;0.30;;;13.10;99.90;;;;;;4958108;28;20475;-60
2023/11/20 11:30:34;;;;;;;0.30;0.20;;;13.10;99.90;;;;;;4962144;28;20987;-60
2023/11/20 11:33:27;;;;;;;0.30;0.30;;;13.10;99.90;;;;;;4957830;28;20452;-60
2023/11/20 11:36:16;;;;;;;0.30;0.30;;;13.20;99.90;;;;;;4957494;28;20459;-61
2023/11/20 11:38:50;;;;;;;0.30;0.20;;;13.20;99.90;;;;;;4943016;29;20405;-61
2023/11/20 11:41:24;;;;;;;0.30;0.20;;;13.10;99.90;;;;;;4972129;28;20420;-61
2023/11/20 11:44:21;;;;;;;0.40;0.40;;;13.00;99.90;;;;;;4973143;28;20906;-61
2023/11/20 11:46:50;;;;;;;0.30;0.20;;;13.00;99.90;;;;;;4944900;28;20490;-61
2023/11/20 11:49:23;;;;;;;0.30;0.30;;;12.90;99.90;;;;;;4957723;29;20420;-61
2023/11/20 11:51:51;;;;;;;0.40;0.40;;;12.90;99.90;;;;;;4972436;28;20768;-61
2023/11/20 11:54:17;;;;;;;0.30;0.30;;;12.90;99.90;;;;;;4931533;29;20441;-61
2023/11/20 11:56:49;;;;;;;0.30;0.30;;;12.80;99.90;;;;;;4957568;28;20443;-61
2023/11/20 11:59:38;;;;;;;0.30;0.30;;;12.80;99.90;;;;;;4958875;28;20428;-61
2023/11/20 12:02:05;;;;;;;0.30;0.20;;;12.70;99.90;;;;;;4973365;28;20877;-60
2023/11/20 12:04:49;;;;;;;0.30;0.30;;;12.60;99.90;;;;;;4976109;28;20422;-61
2023/11/20 12:07:15;;;;;;;0.30;0.30;;;12.50;99.90;;;;;;4953055;29;20449;-62
2023/11/20 12:09:54;;;;;;;0.30;0.20;;;12.50;99.90;;;;;;4973162;28;20767;-63
2023/11/20 12:12:40;;;;;;;0.30;0.30;;;12.50;99.90;;;;;;4947076;28;20938;-62
2023/11/20 12:15:38;;;;;;;0.30;0.30;;;12.60;99.90;;;;;;4973676;28;20965;-62
2023/11/20 12:18:15;;;;;;;0.30;0.20;;;12.80;99.90;;;;;;4975609;28;20406;-63
2023/11/20 12:20:58;;;;;;;0.30;0.30;;;12.90;99.90;;;;;;4952841;28;20402;-62
2023/11/20 12:23:30;;;;;;;0.30;0.30;;;13.00;99.90;;;;;;4956759;29;20398;-61
2023/11/20 12:25:56;;;;;;;0.30;0.20;;;13.10;99.90;;;;;;4956628;28;20498;-60
2023/11/20 12:28:23;;;;;;;0.30;0.30;;;13.20;99.90;;;;;;4956877;28;20507;-61
2023/11/20 12:30:49;;;;;;;0.30;0.30;;;13.20;99.90;;;;;;4961050;28;20706;-60
2023/11/20 12:33:15;;;;;;;0.30;0.30;;;13.30;99.90;;;;;;4975897;28;20826;-61
2023/11/20 12:35:41;;;;;;;0.30;0.30;;;13.30;99.90;;;;;;4955804;28;20463;-61
2023/11/20 12:38:09;;;;;;;0.30;0.20;;;13.30;99.90;;;;;;4975480;28;20381;-61
2023/11/20 12:40:35;;;;;;;0.30;0.30;;;13.30;99.90;;;;;;4953195;28;20486;-60
2023/11/20 12:43:00;;;;;;;0.30;0.30;;;13.30;99.90;;;;;;4974404;28;20415;-60
2023/11/20 12:45:27;;;;;;;0.30;0.30;;;13.30;99.90;;;;;;4975093;28;20199;-61
2023/11/20 12:47:52;;;;;;;0.30;0.30;;;13.40;99.90;;;;;;4975953;28;20568;-61
2023/11/20 12:50:21;;;;;;;0.30;0.30;;;13.40;99.90;;;;;;4957078;28;20420;-62
2023/11/20 12:52:47;;;;;;;0.50;0.50;;;13.50;99.90;;;;;;4956499;29;20223;-61
2023/11/20 12:55:14;;;;;;;0.30;0.30;;;13.50;99.90;;;;;;4955088;28;20828;-61
2023/11/20 12:57:42;;;;;;;0.30;0.30;;;13.50;99.90;;;;;;4956688;29;20408;-60
2023/11/20 13:00:14;;;;;;;0.30;0.20;;;13.40;99.90;;;;;;4957135;28;20777;-61
2023/11/20 13:02:51;;;;;;;0.30;0.20;;;13.40;99.90;;;;;;4956457;29;20736;-60
2023/11/20 13:05:16;;;;;;;0.30;0.20;;;13.50;99.90;;;;;;4956571;28;20901;-60
2023/11/20 13:07:42;;;;;;;0.30;0.27;;;13.60;99.90;;;;;;4943672;29;20447;-60
2023/11/20 13:10:08;;;;;;;0.30;0.20;;;13.70;99.90;;;;;;4955866;29;20223;-60
2023/11/20 13:12:40;;;;;;;0.30;0.30;;;13.80;99.90;;;;;;4956162;29;20180;-59
2023/11/20 13:15:06;;;;;;;0.30;0.20;;;13.80;99.90;;;;;;4955858;28;20459;-62
2023/11/20 13:17:35;;;;;;;0.30;0.20;;;13.90;99.90;;;;;;4955939;29;20891;-61
2023/11/20 13:20:05;;;;;;;0.30;0.30;;;13.90;99.90;;;;;;4956087;29;20444;-61
2023/11/20 13:22:42;;;;;;;0.30;0.30;;;13.90;99.90;;;;;;4956058;29;20472;-61
2023/11/20 13:25:08;;;;;;;0.30;0.20;;;13.80;99.90;;;;;;4954936;28;20511;-60
2023/11/20 13:27:35;;;;;;;0.30;0.30;;;13.70;99.90;;;;;;4956069;29;20408;-60
2023/11/20 13:30:11;;;;;;;0.30;0.30;;;13.50;99.90;;;;;;4956031;29;20760;-60
2023/11/20 13:32:37;;;;;;;0.30;0.30;;;13.40;99.90;;;;;;4955824;29;20791;-60
2023/11/20 13:35:03;;;;;;;0.30;0.20;;;13.30;99.90;;;;;;4938078;29;20460;-60
2023/11/20 13:37:34;;;;;;;0.30;0.20;;;13.10;99.90;;;;;;4955786;29;20172;-61
2023/11/20 13:39:59;;;;;;;0.30;0.20;;;13.00;99.90;;;;;;4955162;29;20428;-60
2023/11/20 13:42:25;;;;;;;0.30;0.30;;;12.90;99.90;;;;;;4955641;29;20741;-61
2023/11/20 13:44:51;;;;;;;0.30;0.20;;;12.90;99.90;;;;;;4955331;28;20202;-60
2023/11/20 13:47:16;;;;;;;0.30;0.30;;;12.90;99.90;;;;;;4937796;29;20196;-60
2023/11/20 13:49:44;;;;;;;0.40;0.40;;;12.80;99.90;;;;;;4955863;29;20205;-60
2023/11/20 13:52:10;;;;;;;0.30;0.30;;;12.80;99.90;;;;;;4955612;29;20173;-61
2023/11/20 13:54:36;;;;;;;0.30;0.30;;;12.70;99.90;;;;;;4937761;29;20467;-60
2023/11/20 13:57:03;;;;;;;0.40;0.40;;;12.70;99.90;;;;;;4955745;29;20386;-60
2023/11/20 13:59:29;;;;;;;0.30;0.20;;;12.70;99.90;;;;;;4937870;29;20215;-61
2023/11/20 14:01:55;;;;;;;0.30;0.30;;;12.60;99.90;;;;;;4955094;29;20470;-61
2023/11/20 14:04:22;;;;;;;0.30;0.30;;;12.60;99.90;;;;;;4955035;29;20416;-61
2023/11/20 14:06:48;;;;;;;0.30;0.20;;;12.50;99.90;;;;;;4955277;28;20221;-61
2023/11/20 14:09:13;;;;;;;0.30;0.30;;;12.50;99.90;;;;;;4955375;29;20383;-61
2023/11/20 14:11:40;;;;;;;0.30;0.30;;;12.50;99.90;;;;;;4955459;29;20183;-60
2023/11/20 14:14:06;;;;;;;0.30;0.20;;;12.50;99.90;;;;;;4955139;29;20179;-60
2023/11/20 14:16:31;;;;;;;0.30;0.20;;;12.50;99.90;;;;;;4954979;28;20801;-61
2023/11/20 14:18:57;;;;;;;0.30;0.30;;;12.60;99.90;;;;;;4955412;29;20387;-60
2023/11/20 14:21:23;;;;;;;0.30;0.30;;;12.60;99.90;;;;;;4937898;29;20223;-62
2023/11/20 14:23:48;;;;;;;0.30;0.30;;;12.70;99.90;;;;;;4954737;29;20173;-64
2023/11/20 14:26:17;;;;;;;0.30;0.30;;;12.70;99.90;;;;;;4954787;28;20323;-61
2023/11/20 14:28:46;;;;;;;0.40;0.40;;;12.70;99.90;;;;;;4955027;29;20282;-61
2023/11/20 14:31:12;;;;;;;0.30;0.30;;;12.70;99.90;;;;;;4955193;29;20772;-61
2023/11/20 14:33:39;;;;;;;0.30;0.30;;;12.60;99.90;;;;;;4955245;29;20475;-61
2023/11/20 14:36:06;;;;;;;0.30;0.20;;;12.70;99.90;;;;;;4954436;28;20499;-61
2023/11/20 14:38:32;;;;;;;0.30;0.20;;;12.60;99.90;;;;;;4954996;29;20391;-61
2023/11/20 14:40:59;;;;;;;0.30;0.30;;;12.50;99.90;;;;;;4954797;29;20455;-61
2023/11/20 14:43:24;;;;;;;0.30;0.30;;;12.30;99.90;;;;;;4955531;29;20412;-61
2023/11/20 14:45:51;;;;;;;0.30;0.30;;;12.10;99.90;;;;;;4954605;28;20457;-61
2023/11/20 14:48:16;;;;;;;0.37;0.37;;;11.90;99.90;;;;;;4955187;29;20271;-61
2023/11/20 14:50:43;;;;;;;0.30;0.30;;;11.70;99.90;;;;;;4955032;29;20509;-61
2023/11/20 14:53:10;;;;;;;0.30;0.20;;;11.60;99.90;;;;;;4954896;29;20195;-61
2023/11/20 14:55:36;;;;;;;0.30;0.30;;;11.50;99.90;;;;;;4954189;28;20573;-61
2023/11/20 14:58:02;;;;;;;0.30;0.30;;;11.50;99.90;;;;;;4954879;29;20779;-60
2023/11/20 15:00:28;;;;;;;0.40;0.40;;;11.40;99.90;;;;;;4954953;29;20411;-61
2023/11/20 15:02:54;;;;;;;0.30;0.20;;;11.30;99.90;;;;;;4954720;29;20426;-60
2023/11/20 15:05:20;;;;;;;0.30;0.30;;;11.20;99.90;;;;;;4954475;28;20198;-61
2023/11/20 15:07:47;;;;;;;0.30;0.30;;;11.10;99.90;;;;;;4954722;29;20191;-60
2023/11/20 15:10:14;;;;;;;0.40;0.40;;;11.00;99.90;;;;;;4954960;29;20410;-61
2023/11/20 15:12:41;;;;;;;0.33;0.33;;;10.90;99.90;;;;;;4937482;29;20769;-61
2023/11/20 15:15:11;;;;;;;0.37;0.37;;;10.90;99.90;;;;;;4954246;28;20820;-61
2023/11/20 15:17:41;;;;;;;0.37;0.37;;;10.80;99.90;;;;;;4954422;28;20429;-61
2023/11/20 15:20:13;;;;;;;0.30;0.30;;;10.70;99.90;;;;;;4940571;29;20445;-60
2023/11/20 15:22:39;;;;;;;0.30;0.20;;;10.60;99.90;;;;;;4960150;28;20393;-61
2023/11/20 15:25:06;;;;;;;0.30;0.30;;;10.50;99.90;;;;;;4964669;28;20432;-61
2023/11/20 15:27:32;;;;;;;0.30;0.30;;;10.40;99.90;;;;;;4958145;28;20808;-61
2023/11/20 15:29:58;;;;;;;0.30;0.30;;;10.30;99.90;;;;;;4958905;28;20188;-61
2023/11/20 15:32:23;;;;;;;0.30;0.30;;;10.20;99.90;;;;;;4957975;28;20185;-60
2023/11/20 15:34:49;;;;;;;0.30;0.30;;;10.10;99.90;;;;;;4956590;28;20209;-62
2023/11/20 15:37:15;;;;;;;0.30;0.30;;;10.00;99.90;;;;;;4956934;29;20178;-62
2023/11/20 15:39:42;;;;;;;0.30;0.30;;;9.90;99.90;;;;;;4967305;28;20168;-61
2023/11/20 15:42:09;;;;;;;0.30;0.30;;;9.90;99.90;;;;;;4970123;28;20173;-62
2023/11/20 15:44:34;;;;;;;0.75;0.75;;;9.80;99.90;;;;;;4951174;29;20232;-62
2023/11/20 15:47:00;;;;;;;0.30;0.30;;;9.80;99.90;;;;;;4966644;28;20204;-61
2023/11/20 15:49:26;;;;;;;0.30;0.30;;;9.70;99.90;;;;;;4940358;29;20452;-60
2023/11/20 15:51:51;;;;;;;0.30;0.30;;;9.60;99.90;;;;;;4957694;29;20177;-61
2023/11/20 15:54:17;;;;;;;0.30;0.20;;;9.60;99.90;;;;;;4956911;29;20677;-59
2023/11/20 15:56:49;;;;;;;0.53;0.53;;;9.50;99.90;;;;;;4957368;28;20235;-61
2023/11/20 15:59:18;;;;;;;0.30;0.20;;;9.40;99.90;;;;;;4957331;29;20192;-60
2023/11/20 16:01:53;;;;;;;0.30;0.20;;;9.30;99.90;;;;;;4940227;29;20235;-60
2023/11/20 16:04:19;;;;;;;0.30;0.30;;;9.20;99.90;;;;;;4957308;29;20187;-61
2023/11/20 16:06:45;;;;;;;0.30;0.30;;;9.20;99.90;;;;;;4957233;28;20215;-61
2023/11/20 16:09:16;;;;;;;0.30;0.30;;;9.20;99.90;;;;;;4957700;29;20566;-62
2023/11/20 16:11:48;;;;;;;0.35;0.35;;;9.10;99.90;;;;;;4957561;29;20177;-60
2023/11/20 16:14:14;;;;;;;0.30;0.30;;;9.20;99.90;;;;;;4939759;29;20204;-61
2023/11/20 16:16:44;;;;;;;0.30;0.30;;;9.10;99.90;;;;;;4957101;28;20527;-61
2023/11/20 16:19:10;;;;;;;0.30;0.30;;;9.20;99.90;;;;;;4957396;29;20404;-61
2023/11/20 16:21:35;;;;;;;0.30;0.30;;;9.20;99.90;;;;;;4957351;29;20180;-61
2023/11/20 16:24:01;;;;;;;0.30;0.30;;;9.20;99.90;;;;;;4956598;29;20182;-60
2023/11/20 16:26:27;;;;;;;0.37;0.37;;;9.20;99.90;;;;;;4956782;28;20207;-61
2023/11/20 16:28:52;;;;;;;0.30;0.30;;;9.20;99.90;;;;;;4957084;29;20180;-61
2023/11/20 16:31:19;;;;;;;0.30;0.30;;;9.30;99.90;;;;;;4955848;28;20179;-60
2023/11/20 16:33:45;;;;;;;0.30;0.30;;;9.30;99.90;;;;;;4956880;29;20175;-61
2023/11/20 16:36:10;;;;;;;0.30;0.30;;;9.30;99.90;;;;;;4956258;28;20577;-61
2023/11/20 16:38:36;;;;;;;0.30;0.30;;;9.30;99.90;;;;;;4956368;29;20165;-62
2023/11/20 16:41:02;;;;;;;0.30;0.30;;;9.30;99.90;;;;;;4956887;29;20193;-61
2023/11/20 16:43:28;;;;;;;0.30;0.20;;;9.30;99.90;;;;;;4956494;29;20420;-61
2023/11/20 16:45:54;;;;;;;0.30;0.30;;;9.30;99.90;;;;;;4938767;29;20245;-60
2023/11/20 16:48:19;;;;;;;0.30;0.30;;;9.30;99.90;;;;;;4939208;29;20173;-61
2023/11/20 16:50:45;;;;;;;0.30;0.30;;;9.30;99.90;;;;;;4938690;29;20223;-63
2023/11/20 16:53:11;;;;;;;0.30;0.30;;;9.30;99.90;;;;;;4956321;29;20205;-61
2023/11/20 16:55:37;;;;;;;0.30;0.30;;;9.30;99.90;;;;;;4955596;28;20475;-64